createdAt,value
2022-07-30T00:04:54.634Z,100.00
2022-07-30T00:09:58.354Z,100.00
2022-07-30T00:15:02.099Z,100.00
2022-07-30T00:20:09.382Z,100.00
2022-07-30T00:25:16.363Z,100.00
2022-07-30T00:30:20.232Z,100.00
2022-07-30T00:35:25.220Z,100.00
2022-07-30T00:40:32.618Z,100.00
2022-07-30T00:45:37.488Z,100.00
2022-07-30T00:50:42.954Z,100.00
2022-07-30T00:55:49.356Z,100.00
2022-07-30T01:00:53.501Z,100.00
2022-07-30T01:05:58.667Z,100.00
2022-07-30T01:11:03.265Z,100.00
2022-07-30T01:16:07.337Z,100.00
2022-07-30T01:21:16.764Z,100.00
2022-07-30T01:26:23.614Z,100.00
2022-07-30T01:31:29.281Z,100.00
2022-07-30T01:36:33.829Z,100.00
2022-07-30T01:41:40.789Z,100.00
2022-07-30T01:46:45.375Z,100.00
2022-07-30T01:51:49.996Z,100.00
2022-07-30T01:56:57.886Z,100.00
2022-07-30T02:02:03.257Z,100.00
2022-07-30T02:07:15.868Z,100.00
2022-07-30T02:12:30.091Z,100.00
2022-07-30T02:17:44.307Z,100.00
2022-07-30T02:22:50.255Z,100.00
2022-07-30T02:27:59.232Z,100.00
2022-07-30T02:33:06.763Z,100.00
2022-07-30T02:38:13.079Z,100.00
2022-07-30T02:43:20.851Z,100.00
2022-07-30T02:48:34.641Z,100.00
2022-07-30T02:53:42.152Z,100.00
2022-07-30T02:58:48.240Z,100.00
2022-07-30T03:03:53.935Z,100.00
2022-07-30T03:08:58.440Z,100.00
2022-07-30T03:14:03.928Z,100.00
2022-07-30T03:19:10.120Z,100.00
2022-07-30T03:24:17.438Z,100.00
2022-07-30T03:29:25.807Z,100.00
2022-07-30T03:34:30.619Z,100.00
2022-07-30T03:39:36.362Z,100.00
2022-07-30T03:44:45.846Z,100.00
2022-07-30T03:49:50.315Z,100.00
2022-07-30T03:54:54.466Z,100.00
2022-07-30T04:00:18.480Z,100.00
2022-07-30T04:05:27.391Z,100.00
2022-07-30T04:10:42.368Z,100.00
2022-07-30T04:16:41.572Z,100.00
2022-07-30T04:21:34.685Z,100.00
2022-07-30T04:26:39.531Z,100.00
2022-07-30T04:31:45.249Z,100.00
2022-07-30T04:37:07.752Z,100.00
2022-07-30T04:42:12.827Z,100.00
2022-07-30T04:47:19.650Z,100.00
2022-07-30T04:52:44.488Z,100.00
2022-07-30T04:57:53.522Z,100.00
2022-07-30T05:02:59.345Z,100.00
2022-07-30T05:08:03.771Z,100.00
2022-07-30T05:18:19.226Z,100.00
2022-07-30T05:23:23.929Z,100.00
2022-07-30T05:28:48.463Z,100.00
2022-07-30T05:34:02.807Z,100.00
2022-07-30T05:39:14.174Z,100.00
2022-07-30T05:44:42.520Z,100.00
2022-07-30T05:49:47.864Z,100.00
2022-07-30T05:54:51.787Z,100.00
2022-07-30T06:00:02.279Z,100.00
2022-07-30T06:05:28.314Z,100.00
2022-07-30T06:10:36.071Z,100.00
2022-07-30T06:15:39.913Z,100.00
2022-07-30T06:20:45.081Z,100.00
2022-07-30T06:25:54.110Z,100.00
2022-07-30T06:30:58.184Z,98.58
2022-07-30T06:36:06.612Z,100.00
2022-07-30T06:41:21.922Z,100.00
2022-07-30T06:46:29.412Z,100.00
2022-07-30T06:51:34.608Z,99.56
2022-07-30T06:56:38.692Z,91.24
2022-07-30T07:01:44.896Z,90.31
2022-07-30T07:06:50.774Z,84.22
2022-07-30T07:12:03.742Z,86.12
2022-07-30T07:17:08.644Z,86.54
2022-07-30T07:22:32.409Z,95.29
2022-07-30T07:27:36.366Z,96.40
2022-07-30T07:32:40.439Z,92.22
2022-07-30T07:37:46.151Z,99.23
2022-07-30T07:42:56.898Z,95.38
2022-07-30T07:48:00.865Z,97.75
2022-07-30T07:53:32.193Z,96.97
2022-07-30T07:58:36.330Z,91.76
2022-07-30T08:03:42.348Z,96.30
2022-07-30T08:09:07.193Z,89.12
2022-07-30T08:14:34.305Z,89.82
2022-07-30T08:19:59.706Z,87.64
2022-07-30T08:25:05.582Z,86.85
2022-07-30T08:30:10.342Z,80.03
2022-07-30T08:35:14.933Z,77.16
2022-07-30T08:40:21.305Z,78.34
2022-07-30T08:45:34.768Z,78.97
2022-07-30T08:50:59.597Z,76.02
2022-07-30T08:56:23.145Z,72.94
2022-07-30T09:01:27.014Z,73.34
2022-07-30T09:06:33.164Z,72.26
2022-07-30T09:11:39.737Z,76.27
2022-07-30T09:16:44.899Z,74.18
2022-07-30T09:21:56.657Z,72.25
2022-07-30T09:27:10.221Z,78.52
2022-07-30T09:32:19.656Z,77.20
2022-07-30T09:37:41.929Z,79.93
2022-07-30T09:43:16.121Z,77.00
2022-07-30T09:48:23.728Z,69.62
2022-07-30T09:53:27.192Z,67.38
2022-07-30T09:58:45.673Z,69.97
2022-07-30T10:03:50.844Z,66.58
2022-07-30T10:09:27.201Z,70.07
2022-07-30T10:14:33.957Z,70.02
2022-07-30T10:19:47.245Z,71.60
2022-07-30T10:25:16.029Z,73.98
2022-07-30T10:30:51.718Z,70.76
2022-07-30T10:35:55.844Z,72.27
2022-07-30T10:41:02.829Z,69.45
2022-07-30T10:46:22.757Z,68.93
2022-07-30T10:51:41.442Z,74.40
2022-07-30T10:57:04.242Z,74.28
2022-07-30T11:02:12.241Z,63.90
2022-07-30T11:07:31.885Z,56.31
2022-07-30T11:12:54.654Z,58.12
2022-07-30T11:18:03.147Z,57.94
2022-07-30T11:23:14.292Z,57.91
2022-07-30T11:28:34.959Z,60.32
2022-07-30T11:33:40.165Z,59.83
2022-07-30T11:38:54.624Z,58.72
2022-07-30T11:44:19.596Z,49.70
2022-07-30T11:49:24.543Z,44.96
2022-07-30T11:54:28.180Z,45.46
2022-07-30T11:59:31.813Z,42.50
2022-07-30T12:04:44.168Z,47.28
2022-07-30T12:09:47.738Z,52.24
2022-07-30T12:14:52.012Z,50.95
2022-07-30T12:19:58.226Z,49.66
2022-07-30T12:25:07.686Z,50.13
2022-07-30T12:30:11.460Z,46.32
2022-07-30T12:35:16.408Z,45.05
2022-07-30T12:40:20.145Z,43.48
2022-07-30T12:45:27.086Z,41.83
2022-07-30T12:50:32.019Z,45.31
2022-07-30T12:55:37.548Z,43.86
2022-07-30T13:00:51.151Z,46.33
2022-07-30T13:05:57.207Z,43.64
2022-07-30T13:11:01.655Z,43.38
2022-07-30T13:16:06.445Z,45.79
2022-07-30T13:21:11.435Z,46.84
2022-07-30T13:26:14.938Z,48.33
2022-07-30T13:31:19.341Z,50.40
2022-07-30T13:36:24.889Z,48.73
2022-07-30T13:41:28.610Z,49.36
2022-07-30T13:46:32.214Z,51.57
2022-07-30T13:51:37.165Z,52.66
2022-07-30T13:56:41.610Z,52.86
2022-07-30T14:01:45.250Z,53.72
2022-07-30T14:06:50.238Z,54.60
2022-07-30T14:11:54.196Z,63.70
2022-07-30T14:16:57.747Z,87.28
2022-07-30T14:22:02.798Z,100.00
2022-07-30T14:27:06.457Z,100.00
2022-07-30T14:32:10.007Z,100.00
2022-07-30T14:37:14.854Z,100.00
2022-07-30T14:42:20.608Z,100.00
2022-07-30T14:47:24.080Z,100.00
2022-07-30T14:52:35.114Z,100.00
2022-07-30T14:57:38.919Z,100.00
2022-07-30T15:02:42.609Z,100.00
2022-07-30T15:07:47.729Z,100.00
2022-07-30T15:12:51.288Z,100.00
2022-07-30T15:17:55.405Z,100.00
2022-07-30T15:23:00.604Z,100.00
2022-07-30T15:28:04.288Z,100.00
2022-07-30T15:33:07.780Z,100.00
2022-07-30T15:38:13.602Z,100.00
2022-07-30T15:43:17.632Z,100.00
2022-07-30T15:48:26.472Z,100.00
2022-07-30T15:53:32.223Z,100.00
2022-07-30T15:58:39.222Z,100.00
2022-07-30T16:03:45.299Z,100.00
2022-07-30T16:08:50.114Z,100.00
2022-07-30T16:13:53.809Z,100.00
2022-07-30T16:18:57.413Z,100.00
2022-07-30T16:24:03.317Z,100.00
2022-07-30T16:29:10.731Z,100.00
2022-07-30T16:34:17.276Z,100.00
2022-07-30T16:39:28.656Z,100.00
2022-07-30T16:44:34.304Z,100.00
2022-07-30T16:49:38.004Z,100.00
2022-07-30T16:54:43.006Z,100.00
2022-07-30T16:59:47.952Z,100.00
2022-07-30T17:04:51.658Z,100.00
2022-07-30T17:09:58.638Z,100.00
2022-07-30T17:15:05.524Z,100.00
2022-07-30T17:20:10.177Z,100.00
2022-07-30T17:25:15.827Z,100.00
2022-07-30T17:30:19.982Z,100.00
2022-07-30T17:35:27.071Z,100.00
2022-07-30T18:53:49.467Z,100.00
2022-07-30T18:58:53.294Z,100.00
2022-07-30T19:03:57.137Z,100.00
2022-07-30T19:09:02.205Z,100.00
2022-07-30T19:14:06.158Z,100.00
2022-07-30T19:19:12.907Z,100.00
2022-07-30T19:24:17.917Z,100.00
2022-07-30T19:29:21.672Z,100.00
2022-07-30T19:34:26.490Z,100.00
2022-07-30T19:39:31.875Z,100.00
2022-07-30T19:44:41.069Z,100.00
2022-07-30T19:49:44.905Z,100.00
2022-07-30T19:54:50.132Z,100.00
2022-07-30T20:00:00.198Z,100.00
2022-07-30T20:05:15.944Z,100.00
2022-07-30T20:10:21.150Z,100.00
2022-07-30T20:15:24.981Z,100.00
2022-07-30T20:20:29.156Z,100.00
2022-07-30T20:25:36.968Z,100.00
2022-07-30T20:30:41.816Z,100.00
2022-07-30T20:35:46.015Z,100.00
2022-07-30T20:40:53.846Z,100.00
2022-07-30T20:45:58.484Z,100.00
2022-07-30T20:51:02.387Z,100.00
2022-07-30T20:56:09.326Z,100.00
2022-07-30T21:01:15.609Z,100.00
2022-07-30T21:06:22.401Z,100.00
2022-07-30T21:11:27.658Z,100.00
2022-07-30T21:16:33.948Z,100.00
2022-07-30T21:21:41.669Z,100.00
2022-07-30T21:26:53.999Z,100.00
2022-07-30T21:32:08.991Z,100.00
2022-07-30T21:37:15.640Z,100.00
2022-07-30T21:42:30.316Z,100.00
2022-07-30T21:47:34.303Z,100.00
2022-07-30T21:52:38.508Z,100.00
2022-07-30T21:57:43.526Z,100.00
2022-07-30T22:02:53.155Z,100.00
2022-07-30T22:07:57.879Z,100.00
2022-07-30T22:13:03.043Z,100.00
2022-07-30T22:18:08.016Z,100.00
2022-07-30T22:23:11.855Z,100.00
2022-07-30T22:28:17.706Z,100.00
2022-07-30T22:33:21.575Z,100.00
2022-07-30T22:38:27.195Z,100.00
2022-07-30T22:43:34.110Z,100.00
2022-07-30T22:48:44.781Z,100.00
2022-07-30T22:54:03.000Z,100.00
2022-07-30T22:59:13.680Z,100.00
2022-07-30T23:04:18.300Z,100.00
2022-07-30T23:09:22.212Z,100.00
2022-07-30T23:14:28.819Z,100.00
2022-07-30T23:19:32.887Z,100.00
2022-07-30T23:24:36.633Z,100.00
2022-07-30T23:29:41.617Z,100.00
2022-07-30T23:34:45.374Z,100.00
2022-07-30T23:39:49.054Z,100.00
2022-07-30T23:44:54.128Z,100.00
2022-07-30T23:49:58.756Z,100.00
2022-07-30T23:55:02.408Z,100.00
